createdAt,value
2022-09-18T00:01:24.948Z,13.80
2022-09-18T00:03:54.815Z,13.90
2022-09-18T00:06:24.596Z,13.90
2022-09-18T00:08:54.343Z,13.90
2022-09-18T00:11:24.368Z,13.90
2022-09-18T00:13:51.782Z,14.00
2022-09-18T00:16:21.810Z,14.00
2022-09-18T00:18:48.995Z,14.00
2022-09-18T00:21:18.722Z,14.00
2022-09-18T00:23:46.226Z,14.00
2022-09-18T00:26:15.410Z,14.00
2022-09-18T00:28:42.791Z,14.00
2022-09-18T00:31:16.214Z,14.00
2022-09-18T00:33:43.583Z,14.00
2022-09-18T00:36:13.211Z,14.00
2022-09-18T00:38:40.649Z,14.00
2022-09-18T00:41:32.723Z,14.00
2022-09-18T00:44:30.994Z,14.00
2022-09-18T00:47:23.590Z,14.00
2022-09-18T00:50:07.427Z,14.00
2022-09-18T00:52:56.827Z,14.00
2022-09-18T00:55:31.041Z,14.00
2022-09-18T00:58:00.399Z,13.90
2022-09-18T01:00:29.429Z,13.90
2022-09-18T01:02:56.693Z,13.90
2022-09-18T01:05:49.110Z,13.90
2022-09-18T01:08:23.737Z,13.80
2022-09-18T01:11:09.647Z,13.80
2022-09-18T01:13:52.586Z,13.80
2022-09-18T01:16:34.174Z,13.80
2022-09-18T01:19:07.016Z,13.80
2022-09-18T01:21:44.353Z,13.80
2022-09-18T01:24:38.859Z,13.80
2022-09-18T01:27:26.859Z,13.80
2022-09-18T01:30:07.834Z,13.80
2022-09-18T01:32:46.456Z,13.80
2022-09-18T01:35:40.621Z,13.80
2022-09-18T01:39:01.432Z,13.80
2022-09-18T01:41:29.962Z,13.80
2022-09-18T01:44:13.879Z,13.80
2022-09-18T01:46:44.473Z,13.80
2022-09-18T01:49:16.051Z,13.80
2022-09-18T01:52:00.641Z,13.70
2022-09-18T01:54:32.658Z,13.70
2022-09-18T01:57:04.836Z,13.70
2022-09-18T01:59:50.821Z,13.70
2022-09-18T02:02:45.069Z,13.60
2022-09-18T02:05:18.743Z,13.60
2022-09-18T02:08:10.913Z,13.60
2022-09-18T02:10:45.143Z,13.50
2022-09-18T02:13:19.858Z,13.50
2022-09-18T02:15:49.377Z,13.40
2022-09-18T02:18:26.208Z,13.40
2022-09-18T02:20:54.819Z,13.30
2022-09-18T02:23:23.436Z,13.30
2022-09-18T02:25:57.786Z,13.30
2022-09-18T02:28:26.981Z,13.20
2022-09-18T02:30:54.785Z,13.20
2022-09-18T02:33:29.696Z,13.20
2022-09-18T02:36:26.224Z,13.20
2022-09-18T02:39:19.267Z,13.10
2022-09-18T02:42:21.305Z,13.10
2022-09-18T02:45:36.961Z,13.10
2022-09-18T02:48:47.969Z,13.10
2022-09-18T02:51:33.066Z,13.00
2022-09-18T02:54:27.022Z,13.00
2022-09-18T02:57:15.299Z,13.00
2022-09-18T02:59:51.125Z,12.90
2022-09-18T03:02:20.858Z,12.90
2022-09-18T03:04:48.214Z,12.80
2022-09-18T03:07:26.369Z,12.80
2022-09-18T03:09:55.316Z,12.70
2022-09-18T03:12:22.243Z,12.70
2022-09-18T03:14:49.440Z,12.70
2022-09-18T03:17:17.217Z,12.70
2022-09-18T03:19:45.860Z,12.60
2022-09-18T03:22:14.265Z,12.60
2022-09-18T03:24:42.403Z,12.50
2022-09-18T03:27:10.604Z,12.50
2022-09-18T03:29:37.890Z,12.50
2022-09-18T03:32:05.241Z,12.50
2022-09-18T03:34:40.681Z,12.50
2022-09-18T03:37:07.659Z,12.50
2022-09-18T03:39:34.998Z,12.50
2022-09-18T03:42:07.156Z,12.50
2022-09-18T03:44:35.621Z,12.50
2022-09-18T03:47:04.935Z,12.50
2022-09-18T03:49:31.909Z,12.50
2022-09-18T03:51:58.926Z,12.50
2022-09-18T03:54:30.320Z,12.50
2022-09-18T03:57:13.241Z,12.50
2022-09-18T03:59:48.966Z,12.40
2022-09-18T04:02:42.856Z,12.40
2022-09-18T04:05:28.577Z,12.40
2022-09-18T04:08:15.749Z,12.40
2022-09-18T04:10:59.942Z,12.30
2022-09-18T04:13:27.701Z,12.30
2022-09-18T04:16:01.576Z,12.20
2022-09-18T04:18:29.338Z,12.20
2022-09-18T04:20:57.691Z,12.10
2022-09-18T04:23:24.767Z,12.10
2022-09-18T04:25:52.189Z,12.10
2022-09-18T04:28:19.973Z,12.00
2022-09-18T04:30:48.411Z,12.00
2022-09-18T04:33:16.342Z,12.00
2022-09-18T04:35:43.544Z,12.00
2022-09-18T04:38:11.142Z,12.00
2022-09-18T04:40:38.171Z,12.00
2022-09-18T04:43:05.633Z,11.90
2022-09-18T04:45:32.815Z,11.90
2022-09-18T04:47:59.836Z,11.90
2022-09-18T04:50:28.682Z,11.90
2022-09-18T04:53:15.563Z,11.90
2022-09-18T04:55:45.164Z,11.90
2022-09-18T04:58:14.428Z,11.90
2022-09-18T05:00:43.469Z,11.90
2022-09-18T05:03:10.676Z,11.90
2022-09-18T05:05:41.344Z,11.90
2022-09-18T05:08:10.417Z,11.90
2022-09-18T05:10:37.337Z,11.90
2022-09-18T05:13:05.104Z,11.80
2022-09-18T05:15:36.113Z,11.90
2022-09-18T05:18:11.343Z,11.90
2022-09-18T05:20:39.196Z,11.90
2022-09-18T05:23:08.045Z,11.90
2022-09-18T05:25:36.961Z,11.90
2022-09-18T05:28:04.366Z,12.00
2022-09-18T05:30:41.709Z,12.00
2022-09-18T05:33:11.069Z,12.00
2022-09-18T05:35:40.328Z,12.00
2022-09-18T05:38:07.348Z,12.10
2022-09-18T05:40:37.426Z,12.20
2022-09-18T05:43:06.001Z,12.20
2022-09-18T05:45:34.493Z,12.30
2022-09-18T05:48:06.639Z,12.30
2022-09-18T05:50:36.597Z,12.40
2022-09-18T05:53:16.397Z,12.50
2022-09-18T05:56:00.238Z,12.60
2022-09-18T05:58:27.293Z,12.70
2022-09-18T06:01:01.300Z,12.80
2022-09-18T06:03:42.091Z,12.80
2022-09-18T06:06:09.076Z,12.90
2022-09-18T06:08:36.454Z,13.00
2022-09-18T06:11:04.034Z,13.10
2022-09-18T06:13:32.336Z,13.20
2022-09-18T06:15:59.917Z,13.30
2022-09-18T06:18:38.479Z,13.40
2022-09-18T06:21:07.011Z,13.60
2022-09-18T06:23:34.347Z,13.70
2022-09-18T06:26:14.957Z,13.80
2022-09-18T06:28:42.981Z,13.90
2022-09-18T06:31:10.854Z,14.00
2022-09-18T06:34:07.031Z,14.10
2022-09-18T06:36:34.125Z,14.20
2022-09-18T06:39:16.124Z,14.40
2022-09-18T06:41:44.979Z,14.50
2022-09-18T06:44:20.795Z,14.60
2022-09-18T06:47:02.628Z,14.70
2022-09-18T06:49:36.973Z,14.80
2022-09-18T06:52:04.471Z,14.90
2022-09-18T06:54:33.386Z,15.00
2022-09-18T06:57:02.188Z,15.10
2022-09-18T06:59:31.292Z,15.20
2022-09-18T07:01:58.397Z,15.30
2022-09-18T07:04:46.848Z,15.40
2022-09-18T07:07:16.499Z,15.50
2022-09-18T07:09:46.451Z,15.60
2022-09-18T07:12:32.256Z,15.70
2022-09-18T07:14:59.219Z,15.80
2022-09-18T07:17:27.808Z,15.80
2022-09-18T07:19:56.899Z,15.80
2022-09-18T07:22:34.317Z,15.90
2022-09-18T07:25:03.660Z,16.00
2022-09-18T07:27:31.046Z,16.10
2022-09-18T07:29:58.872Z,16.10
2022-09-18T07:32:26.653Z,16.30
2022-09-18T07:34:54.156Z,16.40
2022-09-18T07:37:29.558Z,16.50
2022-09-18T07:40:15.318Z,16.80
2022-09-18T07:43:09.366Z,16.90
2022-09-18T07:45:41.398Z,17.20
2022-09-18T07:48:08.463Z,17.40
2022-09-18T07:50:41.488Z,17.60
2022-09-18T07:53:10.508Z,17.70
2022-09-18T07:55:42.933Z,18.00
2022-09-18T07:58:09.932Z,18.20
2022-09-18T08:01:02.869Z,18.40
2022-09-18T08:03:32.359Z,18.60
2022-09-18T08:06:24.848Z,18.80
2022-09-18T08:09:30.598Z,18.90
2022-09-18T08:12:06.186Z,19.20
2022-09-18T08:14:48.152Z,19.30
2022-09-18T08:17:26.051Z,19.50
2022-09-18T08:20:10.426Z,19.70
2022-09-18T08:22:52.611Z,19.90
2022-09-18T08:25:23.418Z,20.00
2022-09-18T08:27:51.369Z,20.20
2022-09-18T08:30:29.756Z,20.30
2022-09-18T08:33:04.839Z,20.40
2022-09-18T08:35:32.183Z,20.60
2022-09-18T08:38:07.619Z,20.80
2022-09-18T08:40:50.575Z,20.90
2022-09-18T08:43:34.781Z,21.00
2022-09-18T08:46:02.168Z,21.20
2022-09-18T08:48:37.461Z,21.20
2022-09-18T08:51:14.764Z,21.40
2022-09-18T08:53:49.622Z,21.40
2022-09-18T08:56:39.336Z,21.50
2022-09-18T08:59:38.676Z,21.70
2022-09-18T09:02:37.983Z,21.70
2022-09-18T09:05:16.119Z,21.80
2022-09-18T09:07:52.139Z,21.90
2022-09-18T09:10:59.316Z,22.10
2022-09-18T09:13:41.711Z,22.20
2022-09-18T09:16:17.007Z,22.30
2022-09-18T09:18:55.389Z,22.40
2022-09-18T09:21:24.885Z,22.40
2022-09-18T09:24:04.521Z,22.40
2022-09-18T09:26:52.009Z,22.50
2022-09-18T09:29:42.119Z,22.50
2022-09-18T09:32:33.296Z,22.60
2022-09-18T09:35:30.400Z,22.70
2022-09-18T09:38:23.352Z,22.70
2022-09-18T09:40:53.514Z,22.80
2022-09-18T09:43:30.249Z,22.90
2022-09-18T09:46:03.084Z,23.00
2022-09-18T09:48:50.751Z,23.10
2022-09-18T09:51:28.099Z,23.20
2022-09-18T09:53:56.069Z,23.20
2022-09-18T09:56:51.509Z,23.30
2022-09-18T09:59:51.096Z,23.30
2022-09-18T10:02:44.697Z,23.40
2022-09-18T10:05:35.191Z,23.50
2022-09-18T10:08:28.678Z,23.60
2022-09-18T10:11:01.422Z,23.80
2022-09-18T10:13:53.602Z,23.80
2022-09-18T10:16:25.999Z,23.90
2022-09-18T10:18:54.453Z,23.90
2022-09-18T10:21:27.699Z,24.00
2022-09-18T10:24:01.035Z,24.00
2022-09-18T10:26:36.341Z,24.10
2022-09-18T10:29:03.404Z,24.10
2022-09-18T10:31:56.454Z,24.20
2022-09-18T10:34:31.541Z,24.30
2022-09-18T10:36:58.928Z,24.40
2022-09-18T10:39:31.735Z,24.50
2022-09-18T10:42:16.451Z,24.50
2022-09-18T10:45:01.430Z,24.60
2022-09-18T10:47:38.053Z,24.60
2022-09-18T10:50:16.944Z,24.60
2022-09-18T10:52:49.603Z,24.60
2022-09-18T10:55:29.319Z,24.60
2022-09-18T10:58:02.352Z,24.70
2022-09-18T11:00:30.064Z,24.80
2022-09-18T11:03:35.024Z,24.80
2022-09-18T11:06:04.812Z,24.90
2022-09-18T11:08:37.089Z,24.90
2022-09-18T11:11:07.376Z,24.90
2022-09-18T11:14:04.422Z,25.00
2022-09-18T11:16:52.571Z,25.00
2022-09-18T11:19:34.796Z,25.10
2022-09-18T11:22:34.218Z,25.20
2022-09-18T11:25:24.721Z,25.20
2022-09-18T11:27:56.492Z,25.20
2022-09-18T11:30:36.068Z,25.30
2022-09-18T11:33:15.995Z,25.30
2022-09-18T11:35:49.019Z,25.40
2022-09-18T11:38:19.608Z,25.40
2022-09-18T11:40:51.822Z,25.30
2022-09-18T11:43:28.438Z,25.30
2022-09-18T11:46:35.853Z,25.20
2022-09-18T11:49:17.574Z,25.30
2022-09-18T11:52:14.275Z,25.30
2022-09-18T11:55:00.355Z,25.20
2022-09-18T11:57:40.285Z,25.20
2022-09-18T12:00:16.095Z,25.10
2022-09-18T12:02:54.415Z,25.00
2022-09-18T12:05:51.451Z,25.00
2022-09-18T12:08:33.981Z,25.00
2022-09-18T12:11:33.353Z,25.00
2022-09-18T12:14:29.287Z,24.90
2022-09-18T12:17:21.554Z,24.80
2022-09-18T12:19:55.393Z,24.80
2022-09-18T12:22:31.955Z,24.90
2022-09-18T12:25:01.107Z,25.00
2022-09-18T12:28:03.619Z,25.10
2022-09-18T12:30:53.902Z,25.20
2022-09-18T12:33:46.032Z,25.20
2022-09-18T12:36:55.564Z,25.30
2022-09-18T12:40:04.481Z,25.40
2022-09-18T12:42:50.177Z,25.50
2022-09-18T12:45:38.717Z,25.60
2022-09-18T12:48:14.278Z,25.60
2022-09-18T12:51:07.120Z,25.50
2022-09-18T12:53:56.580Z,25.40
2022-09-18T12:56:23.601Z,25.30
2022-09-18T12:58:53.258Z,25.30
2022-09-18T13:01:40.299Z,25.40
2022-09-18T13:04:35.713Z,25.40
2022-09-18T13:07:05.119Z,25.40
2022-09-18T13:09:55.781Z,25.50
2022-09-18T13:12:31.132Z,25.60
2022-09-18T13:15:14.725Z,25.60
2022-09-18T13:17:49.132Z,25.60
2022-09-18T13:20:31.531Z,25.50
2022-09-18T13:23:00.871Z,25.40
2022-09-18T13:25:34.084Z,25.40
2022-09-18T13:28:04.992Z,25.40
2022-09-18T13:30:32.301Z,25.40
2022-09-18T13:33:00.399Z,25.40
2022-09-18T13:35:37.408Z,25.40
2022-09-18T13:38:18.667Z,25.50
2022-09-18T13:40:49.279Z,25.50
2022-09-18T13:43:28.141Z,25.50
2022-09-18T13:45:56.562Z,25.50
2022-09-18T13:48:38.521Z,25.60
2022-09-18T13:51:09.408Z,25.50
2022-09-18T13:53:36.292Z,25.50
2022-09-18T13:56:14.042Z,25.40
2022-09-18T13:58:55.795Z,25.40
2022-09-18T14:01:41.251Z,25.40
2022-09-18T14:04:40.275Z,25.40
2022-09-18T14:07:19.695Z,25.40
2022-09-18T14:10:04.582Z,25.30
2022-09-18T14:12:36.144Z,25.30
2022-09-18T14:15:17.316Z,25.30
2022-09-18T14:18:15.296Z,25.30
2022-09-18T14:20:50.508Z,25.20
2022-09-18T14:23:35.668Z,25.20
2022-09-18T14:26:28.016Z,25.10
2022-09-18T14:29:11.137Z,25.10
2022-09-18T14:31:45.856Z,25.00
2022-09-18T14:34:15.835Z,25.00
2022-09-18T14:36:50.216Z,24.90
2022-09-18T14:39:29.426Z,24.90
2022-09-18T14:42:24.863Z,24.90
2022-09-18T14:45:08.645Z,24.80
2022-09-18T14:47:35.948Z,24.70
2022-09-18T14:50:20.894Z,24.60
2022-09-18T14:52:47.919Z,24.60
2022-09-18T14:55:22.743Z,24.60
2022-09-18T14:57:56.106Z,24.50
2022-09-18T15:00:30.131Z,24.60
2022-09-18T15:03:00.518Z,24.50
2022-09-18T15:05:28.552Z,24.50
2022-09-18T15:08:01.128Z,24.40
2022-09-18T15:10:38.707Z,24.40
2022-09-18T15:13:08.407Z,24.30
2022-09-18T15:15:39.462Z,24.20
2022-09-18T15:18:28.735Z,24.20
2022-09-18T15:20:58.199Z,24.10
2022-09-18T15:23:30.759Z,24.10
2022-09-18T15:26:03.092Z,24.10
2022-09-18T15:28:33.724Z,24.10
2022-09-18T15:31:04.814Z,24.00
2022-09-18T15:33:33.700Z,24.00
2022-09-18T15:36:02.542Z,23.90
2022-09-18T15:38:41.554Z,23.90
2022-09-18T15:41:42.444Z,23.90
2022-09-18T15:44:33.928Z,23.80
2022-09-18T15:47:31.005Z,23.80
2022-09-18T15:49:59.790Z,23.70
2022-09-18T15:52:40.586Z,23.70
2022-09-18T15:55:10.397Z,23.60
2022-09-18T15:57:38.684Z,23.60
2022-09-18T16:00:11.916Z,23.60
2022-09-18T16:02:39.428Z,23.60
2022-09-18T16:05:12.444Z,23.50
2022-09-18T16:07:47.593Z,23.40
2022-09-18T16:10:39.749Z,23.40
2022-09-18T16:13:15.847Z,23.40
2022-09-18T16:15:47.787Z,23.30
2022-09-18T16:18:29.118Z,23.20
2022-09-18T16:20:57.717Z,23.10
2022-09-18T16:23:36.192Z,23.10
2022-09-18T16:26:19.913Z,23.00
2022-09-18T16:28:53.719Z,22.90
2022-09-18T16:31:22.740Z,22.90
2022-09-18T16:33:51.690Z,22.80
2022-09-18T16:36:27.526Z,22.70
2022-09-18T16:38:55.409Z,22.70
2022-09-18T16:41:22.628Z,22.60
2022-09-18T16:43:51.348Z,22.50
2022-09-18T16:46:20.707Z,22.40
2022-09-18T16:48:48.011Z,22.30
2022-09-18T16:51:15.024Z,22.30
2022-09-18T16:53:42.006Z,22.20
2022-09-18T16:56:12.551Z,22.10
2022-09-18T16:58:41.268Z,22.10
2022-09-18T17:01:08.443Z,22.00
2022-09-18T17:03:35.533Z,21.90
2022-09-18T17:06:02.695Z,21.80
2022-09-18T17:08:30.457Z,21.70
2022-09-18T17:10:57.899Z,21.70
2022-09-18T17:13:24.917Z,21.60
2022-09-18T17:15:52.090Z,21.50
2022-09-18T17:18:19.110Z,21.50
2022-09-18T17:20:46.093Z,21.40
2022-09-18T17:23:13.344Z,21.20
2022-09-18T17:25:40.597Z,21.10
2022-09-18T17:28:08.043Z,21.00
2022-09-18T17:30:35.019Z,20.90
2022-09-18T17:33:02.757Z,20.80
2022-09-18T17:35:29.776Z,20.70
2022-09-18T17:37:56.753Z,20.60
2022-09-18T17:40:23.734Z,20.60
2022-09-18T17:42:50.798Z,20.50
2022-09-18T17:45:17.860Z,20.30
2022-09-18T17:47:44.853Z,20.20
2022-09-18T17:50:12.308Z,20.20
2022-09-18T17:52:39.278Z,20.10
2022-09-18T17:55:06.975Z,20.00
2022-09-18T17:57:35.429Z,19.90
2022-09-18T18:00:04.348Z,19.80
2022-09-18T18:02:39.483Z,19.70
2022-09-18T18:05:06.701Z,19.60
2022-09-18T18:07:33.734Z,19.60
2022-09-18T18:10:00.646Z,19.50
2022-09-18T18:12:27.658Z,19.40
2022-09-18T18:14:54.601Z,19.40
2022-09-18T18:17:21.549Z,19.30
2022-09-18T18:19:50.032Z,19.20
2022-09-18T18:22:18.021Z,19.20
2022-09-18T18:24:45.153Z,19.10
2022-09-18T18:27:12.131Z,19.00
2022-09-18T18:29:39.833Z,19.00
2022-09-18T18:32:06.983Z,18.90
2022-09-18T18:34:33.936Z,18.80
2022-09-18T18:37:01.782Z,18.80
2022-09-18T18:39:28.777Z,18.70
2022-09-18T18:41:55.799Z,18.70
2022-09-18T18:44:23.284Z,18.60
2022-09-18T18:46:51.127Z,18.60
2022-09-18T18:49:18.178Z,18.50
2022-09-18T18:51:47.936Z,18.50
2022-09-18T18:54:21.714Z,18.50
2022-09-18T18:56:49.693Z,18.40
2022-09-18T18:59:18.998Z,18.50
2022-09-18T19:01:47.348Z,18.50
2022-09-18T19:04:17.057Z,18.40
2022-09-18T19:06:45.208Z,18.40
2022-09-18T19:09:20.431Z,18.40
2022-09-18T19:11:49.339Z,18.40
2022-09-18T19:14:21.650Z,18.30
2022-09-18T19:16:50.970Z,18.40
2022-09-18T19:19:19.803Z,18.30
2022-09-18T19:21:47.833Z,18.30
2022-09-18T19:24:15.881Z,18.30
2022-09-18T19:26:43.337Z,18.30
2022-09-18T19:29:15.698Z,18.30
2022-09-18T19:31:44.215Z,18.30
2022-09-18T19:34:13.395Z,18.30
2022-09-18T19:36:41.080Z,18.30
2022-09-18T19:39:11.221Z,18.20
2022-09-18T19:41:52.085Z,18.20
2022-09-18T19:44:36.974Z,18.20
2022-09-18T19:47:07.447Z,18.10
2022-09-18T19:49:38.144Z,18.10
2022-09-18T19:52:18.255Z,18.00
2022-09-18T19:54:50.897Z,18.10
2022-09-18T19:57:18.983Z,18.00
2022-09-18T19:59:47.018Z,18.00
2022-09-18T20:02:19.236Z,18.00
2022-09-18T20:04:46.375Z,17.90
2022-09-18T20:07:13.755Z,17.90
2022-09-18T20:09:40.918Z,17.90
2022-09-18T20:12:09.143Z,17.80
2022-09-18T20:14:36.091Z,17.80
2022-09-18T20:17:03.066Z,17.70
2022-09-18T20:19:29.979Z,17.70
2022-09-18T20:21:56.951Z,17.70
2022-09-18T20:24:23.975Z,17.70
2022-09-18T20:26:51.492Z,17.70
2022-09-18T20:29:18.484Z,17.70
2022-09-18T20:31:46.183Z,17.70
2022-09-18T20:34:13.858Z,17.60
2022-09-18T20:36:40.925Z,17.60
2022-09-18T20:39:08.737Z,17.60
2022-09-18T20:41:35.779Z,17.60
2022-09-18T20:44:05.682Z,17.60
2022-09-18T20:46:37.142Z,17.60
2022-09-18T20:49:05.208Z,17.60
2022-09-18T20:51:37.035Z,17.60
2022-09-18T20:54:08.206Z,17.60
2022-09-18T20:56:41.319Z,17.60
2022-09-18T20:59:10.710Z,17.60
2022-09-18T21:01:38.205Z,17.50
2022-09-18T21:04:05.336Z,17.50
2022-09-18T21:06:33.493Z,17.40
2022-09-18T21:09:05.505Z,17.40
2022-09-18T21:11:36.811Z,17.40
2022-09-18T21:14:05.415Z,17.30
2022-09-18T21:16:36.074Z,17.20
2022-09-18T21:19:04.914Z,17.10
2022-09-18T21:21:36.811Z,17.00
2022-09-18T21:24:05.322Z,17.00
2022-09-18T21:26:38.566Z,16.90
2022-09-18T21:29:05.622Z,16.90
2022-09-18T21:31:38.528Z,16.90
2022-09-18T21:34:05.712Z,16.90
2022-09-18T21:36:34.813Z,16.80
2022-09-18T21:39:01.837Z,16.80
2022-09-18T21:41:28.785Z,16.70
2022-09-18T21:43:56.440Z,16.70
2022-09-18T21:46:23.953Z,16.60
2022-09-18T21:48:54.421Z,16.60
2022-09-18T21:51:21.874Z,16.60
2022-09-18T21:53:48.904Z,16.50
2022-09-18T21:56:18.660Z,16.50
2022-09-18T21:58:47.753Z,16.40
2022-09-18T22:01:16.171Z,16.40
2022-09-18T22:03:50.610Z,16.30
2022-09-18T22:06:19.498Z,16.30
2022-09-18T22:08:50.367Z,16.30
2022-09-18T22:11:19.036Z,16.20
2022-09-18T22:13:47.297Z,16.20
2022-09-18T22:16:14.402Z,16.10
2022-09-18T22:18:42.105Z,16.10
2022-09-18T22:21:27.611Z,16.00
2022-09-18T22:23:57.340Z,16.00
2022-09-18T22:26:27.171Z,16.00
2022-09-18T22:28:56.762Z,16.00
2022-09-18T22:31:24.913Z,15.90
2022-09-18T22:33:57.717Z,16.00
2022-09-18T22:36:25.829Z,15.90
2022-09-18T22:38:54.197Z,15.90
2022-09-18T22:41:21.759Z,15.90
2022-09-18T22:43:54.680Z,15.90
2022-09-18T22:46:23.325Z,15.90
2022-09-18T22:48:50.415Z,15.90
2022-09-18T22:51:19.999Z,16.00
2022-09-18T22:53:56.158Z,16.00
2022-09-18T22:56:28.054Z,16.10
2022-09-18T22:58:56.332Z,16.10
2022-09-18T23:01:37.389Z,16.10
2022-09-18T23:04:05.423Z,16.10
2022-09-18T23:06:33.748Z,16.20
2022-09-18T23:09:03.296Z,16.20
2022-09-18T23:11:32.481Z,16.20
2022-09-18T23:14:07.638Z,16.20
2022-09-18T23:16:36.222Z,16.20
2022-09-18T23:19:06.470Z,16.20
2022-09-18T23:21:34.890Z,16.20
2022-09-18T23:24:08.709Z,16.20
2022-09-18T23:26:41.722Z,16.20
2022-09-18T23:29:12.745Z,16.20
2022-09-18T23:31:42.865Z,16.10
2022-09-18T23:34:19.080Z,16.10
2022-09-18T23:36:49.309Z,16.00
2022-09-18T23:39:25.259Z,16.00
2022-09-18T23:41:52.722Z,16.00
2022-09-18T23:44:21.423Z,15.90
2022-09-18T23:46:48.816Z,15.90
2022-09-18T23:49:17.047Z,15.70
2022-09-18T23:51:46.450Z,15.70
2022-09-18T23:54:19.787Z,15.70
2022-09-18T23:56:47.242Z,15.70
2022-09-18T23:59:15.969Z,15.60
